createdAt,value
2022-10-11T00:00:40.764Z,0.00
2022-10-11T00:01:40.778Z,0.00
2022-10-11T00:02:40.746Z,0.00
2022-10-11T00:03:40.756Z,0.00
2022-10-11T00:04:40.736Z,0.00
2022-10-11T00:05:40.720Z,0.00
2022-10-11T00:06:40.721Z,0.00
2022-10-11T00:07:40.721Z,0.00
2022-10-11T00:08:40.710Z,0.00
2022-10-11T00:09:40.697Z,0.00
2022-10-11T00:10:40.696Z,0.00
2022-10-11T00:11:40.684Z,0.00
2022-10-11T00:12:40.676Z,0.00
2022-10-11T00:13:40.692Z,0.00
2022-10-11T00:14:40.664Z,0.00
2022-10-11T00:15:40.657Z,0.00
2022-10-11T00:16:40.656Z,0.00
2022-10-11T00:17:40.647Z,0.00
2022-10-11T00:18:40.655Z,0.00
2022-10-11T00:19:40.631Z,0.00
2022-10-11T00:20:40.631Z,0.00
2022-10-11T00:21:40.615Z,0.00
2022-10-11T00:22:40.619Z,0.00
2022-10-11T00:23:40.610Z,0.00
2022-10-11T00:24:40.608Z,0.00
2022-10-11T00:25:40.595Z,0.00
2022-10-11T00:26:45.698Z,0.00
2022-10-11T00:27:42.584Z,0.00
2022-10-11T00:28:40.632Z,0.00
2022-10-11T00:29:40.573Z,0.00
2022-10-11T00:30:40.564Z,0.00
2022-10-11T00:31:40.551Z,0.00
2022-10-11T00:32:40.549Z,0.00
2022-10-11T00:33:40.542Z,0.00
2022-10-11T00:34:40.544Z,0.00
2022-10-11T00:35:40.534Z,0.00
2022-10-11T00:36:40.511Z,0.00
2022-10-11T00:37:40.527Z,0.00
2022-10-11T00:38:40.510Z,0.00
2022-10-11T00:39:40.497Z,0.00
2022-10-11T00:40:40.524Z,0.00
2022-10-11T00:41:40.488Z,0.00
2022-10-11T00:42:40.480Z,0.00
2022-10-11T00:43:40.465Z,0.00
2022-10-11T00:44:40.472Z,0.00
2022-10-11T00:45:40.478Z,0.00
2022-10-11T00:46:40.466Z,0.00
2022-10-11T00:47:40.445Z,0.00
2022-10-11T00:48:40.437Z,0.00
2022-10-11T00:49:40.428Z,0.00
2022-10-11T00:50:40.441Z,0.00
2022-10-11T00:51:40.428Z,0.00
2022-10-11T00:52:40.405Z,0.00
2022-10-11T00:53:40.405Z,0.00
2022-10-11T00:54:40.396Z,0.00
2022-10-11T00:55:40.400Z,0.00
2022-10-11T00:56:40.385Z,0.00
2022-10-11T00:57:40.381Z,0.00
2022-10-11T00:58:40.376Z,0.00
2022-10-11T00:59:40.357Z,0.00
2022-10-11T01:00:40.371Z,0.00
2022-10-11T01:01:40.401Z,0.00
2022-10-11T01:02:40.332Z,0.00
2022-10-11T01:03:40.334Z,0.00
2022-10-11T01:04:40.335Z,0.00
2022-10-11T01:05:40.364Z,0.00
2022-10-11T01:06:40.315Z,0.00
2022-10-11T01:07:40.309Z,0.00
2022-10-11T01:08:40.300Z,0.00
2022-10-11T01:09:40.294Z,0.00
2022-10-11T01:10:40.288Z,0.00
2022-10-11T01:11:40.316Z,0.00
2022-10-11T01:12:40.277Z,0.00
2022-10-11T01:13:40.264Z,0.00
2022-10-11T01:14:40.262Z,0.00
2022-10-11T01:15:40.249Z,0.00
2022-10-11T01:16:40.255Z,0.00
2022-10-11T01:17:40.244Z,0.00
2022-10-11T01:18:40.229Z,0.00
2022-10-11T01:19:40.229Z,0.00
2022-10-11T01:20:40.221Z,0.00
2022-10-11T01:21:40.245Z,0.00
2022-10-11T01:22:40.209Z,0.00
2022-10-11T01:23:40.197Z,0.00
2022-10-11T01:24:40.200Z,0.00
2022-10-11T01:25:40.180Z,0.00
2022-10-11T01:26:40.172Z,0.00
2022-10-11T01:27:40.194Z,0.00
2022-10-11T01:28:40.403Z,0.00
2022-10-11T01:29:40.176Z,0.00
2022-10-11T01:30:40.155Z,0.00
2022-10-11T01:31:40.144Z,0.00
2022-10-11T01:32:40.208Z,0.00
2022-10-11T01:33:40.136Z,0.00
2022-10-11T01:34:40.128Z,0.00
2022-10-11T01:35:40.134Z,0.00
2022-10-11T01:36:40.121Z,0.00
2022-10-11T01:37:40.105Z,0.00
2022-10-11T01:38:40.104Z,0.00
2022-10-11T01:39:40.088Z,0.00
2022-10-11T01:40:40.082Z,0.00
2022-10-11T01:41:40.132Z,0.00
2022-10-11T01:42:40.060Z,0.00
2022-10-11T01:43:40.112Z,0.00
2022-10-11T01:44:40.069Z,0.00
2022-10-11T01:45:40.056Z,0.00
2022-10-11T01:46:40.706Z,0.00
2022-10-11T01:47:40.027Z,0.00
2022-10-11T01:48:40.049Z,0.00
2022-10-11T01:49:40.018Z,0.00
2022-10-11T01:50:40.008Z,0.00
2022-10-11T01:51:42.027Z,0.00
2022-10-11T01:52:40.997Z,0.00
2022-10-11T01:53:39.991Z,0.00
2022-10-11T01:55:07.416Z,0.00
2022-10-11T01:55:41.972Z,0.00
2022-10-11T01:56:39.980Z,0.00
2022-10-11T01:57:39.960Z,0.00
2022-10-11T01:58:39.944Z,0.00
2022-10-11T01:59:39.954Z,0.00
2022-10-11T02:00:39.937Z,0.00
2022-10-11T02:01:40.007Z,0.00
2022-10-11T02:02:39.933Z,0.00
2022-10-11T02:03:39.925Z,0.00
2022-10-11T02:04:39.944Z,0.00
2022-10-11T02:05:39.896Z,0.00
2022-10-11T02:06:39.907Z,0.00
2022-10-11T02:07:39.895Z,0.00
2022-10-11T02:08:39.883Z,0.00
2022-10-11T02:09:39.884Z,0.00
2022-10-11T02:10:40.019Z,0.00
2022-10-11T02:11:39.870Z,0.00
2022-10-11T02:12:39.878Z,0.00
2022-10-11T02:13:39.880Z,0.00
2022-10-11T02:14:39.920Z,0.00
2022-10-11T02:15:39.878Z,0.00
2022-10-11T02:16:39.852Z,0.00
2022-10-11T02:17:40.862Z,0.00
2022-10-11T02:18:39.852Z,0.00
2022-10-11T02:19:39.824Z,0.00
2022-10-11T02:20:39.803Z,0.00
2022-10-11T02:21:39.791Z,0.00
2022-10-11T02:22:39.820Z,0.00
2022-10-11T02:23:39.803Z,0.00
2022-10-11T02:24:40.776Z,0.00
2022-10-11T02:25:39.768Z,0.00
2022-10-11T02:26:39.767Z,0.00
2022-10-11T02:27:39.759Z,0.00
2022-10-11T02:28:39.997Z,0.00
2022-10-11T02:29:39.741Z,0.00
2022-10-11T02:30:39.733Z,0.00
2022-10-11T02:31:40.581Z,0.00
2022-10-11T02:32:39.737Z,0.00
2022-10-11T02:33:39.712Z,0.00
2022-10-11T02:34:39.709Z,0.00
2022-10-11T02:35:39.700Z,0.00
2022-10-11T02:36:39.693Z,0.00
2022-10-11T02:37:39.701Z,0.00
2022-10-11T02:38:39.683Z,0.00
2022-10-11T02:39:39.676Z,0.00
2022-10-11T02:40:39.678Z,0.00
2022-10-11T02:41:39.671Z,0.00
2022-10-11T02:42:39.656Z,0.00
2022-10-11T02:43:39.664Z,0.00
2022-10-11T02:44:39.681Z,0.00
2022-10-11T02:45:39.644Z,0.00
2022-10-11T02:46:39.638Z,0.00
2022-10-11T02:47:39.629Z,0.00
2022-10-11T02:48:39.621Z,0.00
2022-10-11T02:49:39.629Z,0.00
2022-10-11T02:50:39.605Z,0.00
2022-10-11T02:51:39.601Z,0.00
2022-10-11T02:52:39.594Z,0.00
2022-10-11T02:53:39.583Z,0.00
2022-10-11T02:54:39.576Z,0.00
2022-10-11T02:55:39.580Z,0.00
2022-10-11T02:56:39.597Z,0.00
2022-10-11T02:57:39.556Z,0.00
2022-10-11T02:58:39.560Z,0.00
2022-10-11T02:59:39.539Z,0.00
2022-10-11T03:00:39.553Z,0.00
2022-10-11T03:01:39.660Z,0.00
2022-10-11T03:02:39.532Z,0.00
2022-10-11T03:03:39.516Z,0.00
2022-10-11T03:04:39.508Z,0.00
2022-10-11T03:05:39.505Z,0.00
2022-10-11T03:06:39.514Z,0.00
2022-10-11T03:07:39.498Z,0.00
2022-10-11T03:08:39.491Z,0.00
2022-10-11T03:09:39.480Z,0.00
2022-10-11T03:10:39.476Z,0.00
2022-10-11T03:11:40.186Z,0.00
2022-10-11T03:12:39.474Z,0.00
2022-10-11T03:13:39.450Z,0.00
2022-10-11T03:14:39.451Z,0.00
2022-10-11T03:15:39.447Z,0.00
2022-10-11T03:16:39.435Z,0.00
2022-10-11T03:17:39.447Z,0.00
2022-10-11T03:18:39.418Z,0.00
2022-10-11T03:19:39.410Z,0.00
2022-10-11T03:20:39.402Z,0.00
2022-10-11T03:21:39.407Z,0.00
2022-10-11T03:22:39.397Z,0.00
2022-10-11T03:23:39.398Z,0.00
2022-10-11T03:24:39.398Z,0.00
2022-10-11T03:25:39.372Z,0.00
2022-10-11T03:26:39.370Z,0.00
2022-10-11T03:27:39.377Z,0.00
2022-10-11T03:28:39.392Z,0.00
2022-10-11T03:29:39.385Z,0.00
2022-10-11T03:30:39.350Z,0.00
2022-10-11T03:31:39.343Z,0.00
2022-10-11T03:32:39.331Z,0.00
2022-10-11T03:33:39.328Z,0.00
2022-10-11T03:34:39.318Z,0.00
2022-10-11T03:35:39.334Z,0.00
2022-10-11T03:36:39.317Z,0.00
2022-10-11T03:37:39.297Z,0.00
2022-10-11T03:38:39.298Z,0.00
2022-10-11T03:39:39.285Z,0.00
2022-10-11T03:40:39.328Z,0.00
2022-10-11T03:41:39.281Z,0.00
2022-10-11T03:42:39.266Z,0.00
2022-10-11T03:43:39.274Z,0.00
2022-10-11T03:44:39.251Z,0.00
2022-10-11T03:45:39.251Z,0.00
2022-10-11T03:46:39.242Z,0.00
2022-10-11T03:47:39.238Z,0.00
2022-10-11T03:48:39.243Z,0.00
2022-10-11T03:49:43.398Z,0.00
2022-10-11T03:50:39.210Z,0.00
2022-10-11T03:51:39.250Z,0.00
2022-10-11T03:52:39.207Z,0.00
2022-10-11T03:53:39.194Z,0.00
2022-10-11T03:54:39.194Z,0.00
2022-10-11T03:55:39.176Z,0.00
2022-10-11T03:56:39.181Z,0.00
2022-10-11T03:57:39.170Z,0.00
2022-10-11T03:58:39.166Z,0.00
2022-10-11T03:59:39.182Z,0.00
2022-10-11T04:00:39.157Z,0.00
2022-10-11T04:01:39.168Z,0.00
2022-10-11T04:02:39.456Z,0.00
2022-10-11T04:03:40.126Z,0.00
2022-10-11T04:04:39.128Z,0.00
2022-10-11T04:05:39.142Z,0.00
2022-10-11T04:06:39.113Z,0.00
2022-10-11T04:07:39.111Z,0.00
2022-10-11T04:08:39.104Z,0.00
2022-10-11T04:09:39.087Z,0.00
2022-10-11T04:10:39.112Z,0.00
2022-10-11T04:11:39.089Z,0.00
2022-10-11T04:12:39.110Z,0.00
2022-10-11T04:13:39.078Z,0.00
2022-10-11T04:14:39.089Z,0.00
2022-10-11T04:15:39.067Z,0.00
2022-10-11T04:16:39.070Z,0.00
2022-10-11T04:17:39.040Z,0.00
2022-10-11T04:18:39.031Z,0.00
2022-10-11T04:19:39.043Z,0.00
2022-10-11T04:20:39.024Z,0.00
2022-10-11T04:21:39.020Z,0.00
2022-10-11T04:22:39.005Z,0.00
2022-10-11T04:23:39.016Z,0.00
2022-10-11T04:24:38.996Z,0.00
2022-10-11T04:25:38.983Z,0.00
2022-10-11T04:26:38.985Z,0.00
2022-10-11T04:27:38.981Z,0.00
2022-10-11T04:28:39.014Z,0.00
2022-10-11T04:29:38.960Z,0.00
2022-10-11T04:30:38.955Z,0.00
2022-10-11T04:31:39.019Z,0.00
2022-10-11T04:32:39.945Z,0.00
2022-10-11T04:33:38.941Z,0.00
2022-10-11T04:34:38.937Z,0.00
2022-10-11T04:35:38.944Z,0.00
2022-10-11T04:36:38.924Z,0.00
2022-10-11T04:37:38.920Z,0.00
2022-10-11T04:38:38.925Z,0.00
2022-10-11T04:39:38.908Z,0.00
2022-10-11T04:40:38.904Z,0.00
2022-10-11T04:41:38.887Z,0.00
2022-10-11T04:42:38.884Z,0.00
2022-10-11T04:43:38.880Z,0.00
2022-10-11T04:44:38.868Z,0.00
2022-10-11T04:45:38.897Z,0.00
2022-10-11T04:46:38.856Z,0.00
2022-10-11T04:47:38.852Z,0.00
2022-10-11T04:48:38.850Z,0.00
2022-10-11T04:49:38.840Z,0.00
2022-10-11T04:50:38.832Z,0.00
2022-10-11T04:51:38.840Z,0.00
2022-10-11T04:52:38.807Z,0.00
2022-10-11T04:53:38.808Z,0.00
2022-10-11T04:54:38.799Z,0.00
2022-10-11T04:55:38.799Z,0.00
2022-10-11T04:56:38.807Z,0.00
2022-10-11T04:57:38.783Z,0.00
2022-10-11T04:58:38.788Z,0.00
2022-10-11T04:59:38.777Z,0.00
2022-10-11T05:00:38.762Z,0.00
2022-10-11T05:01:38.785Z,0.00
2022-10-11T05:02:38.764Z,0.00
2022-10-11T05:03:38.739Z,0.00
2022-10-11T05:04:38.732Z,0.00
2022-10-11T05:05:38.730Z,0.00
2022-10-11T05:06:38.712Z,0.00
2022-10-11T05:07:38.728Z,0.00
2022-10-11T05:08:38.708Z,0.00
2022-10-11T05:09:38.692Z,0.00
2022-10-11T05:10:38.687Z,0.00
2022-10-11T05:11:38.687Z,0.00
2022-10-11T05:12:38.692Z,0.00
2022-10-11T05:13:38.676Z,0.00
2022-10-11T05:14:38.668Z,0.00
2022-10-11T05:15:38.655Z,0.00
2022-10-11T05:16:38.653Z,0.00
2022-10-11T05:17:38.659Z,0.00
2022-10-11T05:18:38.632Z,0.00
2022-10-11T05:19:38.644Z,0.00
2022-10-11T05:20:38.629Z,0.00
2022-10-11T05:21:38.611Z,0.00
2022-10-11T05:22:38.613Z,0.00
2022-10-11T05:23:38.609Z,0.00
2022-10-11T05:24:38.597Z,0.00
2022-10-11T05:25:38.590Z,0.00
2022-10-11T05:26:38.588Z,0.00
2022-10-11T05:27:38.579Z,0.00
2022-10-11T05:28:38.610Z,0.00
2022-10-11T05:29:38.572Z,0.00
2022-10-11T05:30:38.628Z,0.00
2022-10-11T05:31:38.556Z,0.00
2022-10-11T05:32:38.550Z,0.00
2022-10-11T05:33:38.539Z,0.00
2022-10-11T05:34:38.528Z,0.00
2022-10-11T05:35:38.537Z,0.00
2022-10-11T05:36:38.521Z,0.00
2022-10-11T05:37:38.527Z,0.00
2022-10-11T05:38:38.503Z,5.62
2022-10-11T05:39:38.499Z,5.62
2022-10-11T05:40:38.496Z,5.62
2022-10-11T05:41:38.494Z,5.62
2022-10-11T05:42:38.483Z,5.62
2022-10-11T05:43:38.475Z,5.62
2022-10-11T05:44:38.468Z,5.62
2022-10-11T05:45:38.454Z,5.62
2022-10-11T05:46:38.472Z,5.62
2022-10-11T05:47:38.448Z,5.62
2022-10-11T05:48:38.444Z,5.62
2022-10-11T05:49:38.436Z,5.62
2022-10-11T05:50:38.428Z,11.25
2022-10-11T05:51:38.440Z,11.25
2022-10-11T05:52:38.412Z,11.25
2022-10-11T05:53:38.402Z,11.25
2022-10-11T05:54:38.403Z,11.25
2022-10-11T05:55:38.396Z,11.25
2022-10-11T05:56:38.391Z,11.25
2022-10-11T05:57:38.384Z,11.25
2022-10-11T05:58:38.406Z,16.88
2022-10-11T05:59:38.367Z,16.88
2022-10-11T06:00:38.369Z,16.88
2022-10-11T06:01:38.477Z,16.88
2022-10-11T06:02:38.355Z,22.50
2022-10-11T06:03:38.352Z,22.50
2022-10-11T06:04:38.326Z,22.50
2022-10-11T06:05:38.334Z,28.12
2022-10-11T06:06:38.323Z,28.12
2022-10-11T06:07:38.324Z,33.75
2022-10-11T06:08:38.316Z,33.75
2022-10-11T06:09:38.319Z,33.75
2022-10-11T06:10:38.302Z,39.38
2022-10-11T06:11:38.295Z,45.00
2022-10-11T06:12:38.276Z,50.62
2022-10-11T06:13:38.282Z,56.25
2022-10-11T06:14:38.287Z,61.88
2022-10-11T06:15:38.267Z,61.88
2022-10-11T06:16:38.260Z,61.88
2022-10-11T06:17:38.255Z,67.50
2022-10-11T06:18:38.240Z,67.50
2022-10-11T06:19:38.235Z,67.50
2022-10-11T06:20:38.252Z,67.50
2022-10-11T06:21:38.221Z,67.50
2022-10-11T06:22:38.211Z,67.50
2022-10-11T06:23:38.212Z,67.50
2022-10-11T06:24:38.194Z,67.50
2022-10-11T06:25:38.211Z,61.88
2022-10-11T06:26:38.191Z,61.88
2022-10-11T06:27:38.178Z,61.88
2022-10-11T06:28:38.268Z,61.88
2022-10-11T06:29:38.188Z,67.50
2022-10-11T06:30:38.160Z,73.12
2022-10-11T06:31:38.171Z,73.12
2022-10-11T06:32:38.155Z,67.50
2022-10-11T06:33:38.154Z,67.50
2022-10-11T06:34:38.139Z,67.50
2022-10-11T06:35:38.136Z,67.50
2022-10-11T06:36:38.148Z,61.88
2022-10-11T06:37:38.132Z,67.50
2022-10-11T06:38:43.819Z,67.50
2022-10-11T06:39:40.191Z,73.12
2022-10-11T06:40:38.107Z,78.75
2022-10-11T06:41:38.096Z,84.38
2022-10-11T06:42:38.125Z,84.38
2022-10-11T06:43:38.080Z,84.38
2022-10-11T06:44:38.103Z,90.00
2022-10-11T06:45:38.069Z,90.00
2022-10-11T06:46:38.067Z,90.00
2022-10-11T06:47:38.131Z,90.00
2022-10-11T06:48:38.072Z,90.00
2022-10-11T06:49:38.038Z,90.00
2022-10-11T06:50:58.435Z,90.00
2022-10-11T06:51:40.030Z,90.00
2022-10-11T06:52:38.033Z,90.00
2022-10-11T06:53:38.033Z,90.00
2022-10-11T06:54:42.506Z,95.62
2022-10-11T06:55:40.000Z,95.62
2022-10-11T06:56:37.998Z,101.25
2022-10-11T06:57:37.984Z,101.25
2022-10-11T06:58:37.986Z,101.25
2022-10-11T06:59:37.974Z,106.88
2022-10-11T07:00:38.198Z,112.50
2022-10-11T07:01:38.059Z,123.75
2022-10-11T07:02:37.952Z,140.62
2022-10-11T07:03:37.963Z,168.75
2022-10-11T07:04:37.958Z,202.50
2022-10-11T07:05:37.950Z,230.62
2022-10-11T07:06:37.962Z,230.62
2022-10-11T07:07:37.921Z,225.00
2022-10-11T07:08:37.923Z,225.00
2022-10-11T07:09:37.906Z,225.00
2022-10-11T07:10:37.918Z,236.25
2022-10-11T07:11:37.900Z,236.25
2022-10-11T07:12:37.911Z,241.88
2022-10-11T07:13:37.902Z,253.12
2022-10-11T07:14:37.899Z,281.25
2022-10-11T07:15:37.888Z,292.50
2022-10-11T07:16:37.937Z,286.88
2022-10-11T07:17:37.874Z,275.62
2022-10-11T07:18:37.850Z,247.50
2022-10-11T07:19:37.861Z,253.12
2022-10-11T07:20:37.880Z,320.62
2022-10-11T07:21:37.862Z,399.38
2022-10-11T07:22:37.850Z,652.50
2022-10-11T07:23:37.855Z,900.00
2022-10-11T07:24:37.842Z,945.00
2022-10-11T07:25:37.867Z,888.75
2022-10-11T07:26:38.302Z,753.75
2022-10-11T07:27:38.791Z,545.62
2022-10-11T07:28:37.834Z,450.00
2022-10-11T07:29:37.819Z,416.25
2022-10-11T07:30:37.771Z,388.12
2022-10-11T07:31:37.758Z,376.88
2022-10-11T07:32:37.761Z,388.12
2022-10-11T07:33:37.739Z,461.25
2022-10-11T07:34:37.743Z,534.38
2022-10-11T07:35:37.736Z,736.88
2022-10-11T07:36:37.739Z,933.75
2022-10-11T07:37:37.715Z,973.12
2022-10-11T07:38:37.727Z,995.62
2022-10-11T07:39:37.701Z,1203.75
2022-10-11T07:40:37.695Z,1198.12
2022-10-11T07:41:41.811Z,663.75
2022-10-11T07:42:37.702Z,922.50
2022-10-11T07:43:37.678Z,438.75
2022-10-11T07:44:37.662Z,343.12
2022-10-11T07:45:37.651Z,303.75
2022-10-11T07:46:37.656Z,292.50
2022-10-11T07:47:37.659Z,286.88
2022-10-11T07:48:37.666Z,331.88
2022-10-11T07:49:37.642Z,343.12
2022-10-11T07:50:37.630Z,326.25
2022-10-11T07:51:37.622Z,337.50
2022-10-11T07:52:37.619Z,382.50
2022-10-11T07:53:37.606Z,478.12
2022-10-11T07:54:37.611Z,663.75
2022-10-11T07:55:37.587Z,691.88
2022-10-11T07:56:37.585Z,607.50
2022-10-11T07:57:37.578Z,506.25
2022-10-11T07:58:37.575Z,523.12
2022-10-11T07:59:37.563Z,523.12
2022-10-11T08:00:37.596Z,556.88
2022-10-11T08:01:37.604Z,551.25
2022-10-11T08:02:38.537Z,551.25
2022-10-11T08:03:37.540Z,607.50
2022-10-11T08:04:37.576Z,770.62
2022-10-11T08:05:37.532Z,1299.38
2022-10-11T08:06:37.551Z,1395.00
2022-10-11T08:07:37.522Z,1603.12
2022-10-11T08:08:37.517Z,1620.00
2022-10-11T08:09:37.503Z,1321.88
2022-10-11T08:10:37.504Z,905.62
2022-10-11T08:11:37.479Z,911.25
2022-10-11T08:12:37.504Z,973.12
2022-10-11T08:13:37.487Z,933.75
2022-10-11T08:14:37.461Z,967.50
2022-10-11T08:15:37.460Z,1659.38
2022-10-11T08:16:37.456Z,1710.00
2022-10-11T08:17:37.480Z,1473.75
2022-10-11T08:18:37.457Z,1580.62
2022-10-11T08:19:37.432Z,1338.75
2022-10-11T08:20:37.427Z,1192.50
2022-10-11T08:21:37.425Z,1209.38
2022-10-11T08:22:37.426Z,1226.25
2022-10-11T08:23:37.414Z,838.12
2022-10-11T08:24:38.428Z,1333.12
2022-10-11T08:25:38.389Z,1035.00
2022-10-11T08:26:37.383Z,680.62
2022-10-11T08:27:37.386Z,540.00
2022-10-11T08:28:37.409Z,466.88
2022-10-11T08:29:37.365Z,427.50
2022-10-11T08:30:37.367Z,427.50
2022-10-11T08:31:37.370Z,438.75
2022-10-11T08:32:37.356Z,461.25
2022-10-11T08:33:37.337Z,472.50
2022-10-11T08:34:37.337Z,489.38
2022-10-11T08:35:37.318Z,489.38
2022-10-11T08:36:37.322Z,495.00
2022-10-11T08:37:37.318Z,540.00
2022-10-11T08:38:37.294Z,506.25
2022-10-11T08:39:37.294Z,517.50
2022-10-11T08:40:37.299Z,534.38
2022-10-11T08:41:37.333Z,500.62
2022-10-11T08:42:37.275Z,455.62
2022-10-11T08:43:37.267Z,410.62
2022-10-11T08:45:05.392Z,393.75
2022-10-11T08:45:39.264Z,376.88
2022-10-11T08:46:37.242Z,348.75
2022-10-11T08:47:37.268Z,343.12
2022-10-11T08:48:37.245Z,343.12
2022-10-11T08:49:37.252Z,320.62
2022-10-11T08:50:37.237Z,292.50
2022-10-11T08:51:37.224Z,281.25
2022-10-11T08:52:37.258Z,270.00
2022-10-11T08:53:37.217Z,264.38
2022-10-11T08:54:37.225Z,258.75
2022-10-11T08:55:37.184Z,270.00
2022-10-11T08:56:37.185Z,264.38
2022-10-11T08:57:37.180Z,253.12
2022-10-11T08:58:37.184Z,253.12
2022-10-11T08:59:37.185Z,253.12
2022-10-11T09:00:37.173Z,253.12
2022-10-11T09:01:37.379Z,253.12
2022-10-11T09:03:03.090Z,264.38
2022-10-11T09:03:39.198Z,281.25
2022-10-11T09:04:37.152Z,292.50
2022-10-11T09:05:37.133Z,309.38
2022-10-11T09:06:37.127Z,320.62
2022-10-11T09:07:37.198Z,320.62
2022-10-11T09:08:37.101Z,326.25
2022-10-11T09:09:38.104Z,326.25
2022-10-11T09:10:37.104Z,315.00
2022-10-11T09:11:37.082Z,303.75
2022-10-11T09:12:40.675Z,292.50
2022-10-11T09:13:38.060Z,292.50
2022-10-11T09:14:37.062Z,298.12
2022-10-11T09:15:37.053Z,303.75
2022-10-11T09:16:37.059Z,309.38
2022-10-11T09:17:37.068Z,315.00
2022-10-11T09:18:37.043Z,303.75
2022-10-11T09:19:37.036Z,292.50
2022-10-11T09:20:37.024Z,292.50
2022-10-11T09:21:37.019Z,303.75
2022-10-11T09:22:37.041Z,303.75
2022-10-11T09:23:37.035Z,292.50
2022-10-11T09:24:37.007Z,331.88
2022-10-11T09:25:36.988Z,551.25
2022-10-11T09:26:37.048Z,393.75
2022-10-11T09:28:01.116Z,337.50
2022-10-11T09:28:39.031Z,371.25
2022-10-11T09:29:36.964Z,450.00
2022-10-11T09:30:36.958Z,416.25
2022-10-11T09:31:36.965Z,427.50
2022-10-11T09:32:36.941Z,466.88
2022-10-11T09:33:36.960Z,388.12
2022-10-11T09:34:36.949Z,365.62
2022-10-11T09:35:36.964Z,371.25
2022-10-11T09:36:36.922Z,388.12
2022-10-11T09:37:36.925Z,405.00
2022-10-11T09:38:36.921Z,416.25
2022-10-11T09:39:36.907Z,427.50
2022-10-11T09:40:36.900Z,472.50
2022-10-11T09:41:36.884Z,489.38
2022-10-11T09:42:36.884Z,585.00
2022-10-11T09:43:36.888Z,562.50
2022-10-11T09:44:36.873Z,511.88
2022-10-11T09:45:36.864Z,511.88
2022-10-11T09:46:36.855Z,568.12
2022-10-11T09:47:36.852Z,1321.88
2022-10-11T09:48:36.840Z,1732.50
2022-10-11T09:49:36.843Z,703.12
2022-10-11T09:50:36.832Z,703.12
2022-10-11T09:51:36.813Z,511.88
2022-10-11T09:52:36.812Z,495.00
2022-10-11T09:53:36.820Z,517.50
2022-10-11T09:54:36.820Z,523.12
2022-10-11T09:55:36.798Z,540.00
2022-10-11T09:56:36.804Z,545.62
2022-10-11T09:57:36.792Z,590.62
2022-10-11T09:58:36.812Z,613.12
2022-10-11T09:59:36.791Z,1282.50
2022-10-11T10:00:36.768Z,697.50
2022-10-11T10:01:36.797Z,585.00
2022-10-11T10:02:37.760Z,686.25
2022-10-11T10:03:36.771Z,1597.50
2022-10-11T10:04:52.265Z,2070.00
2022-10-11T10:05:37.751Z,1991.25
2022-10-11T10:06:36.720Z,2216.25
2022-10-11T10:07:36.741Z,1665.00
2022-10-11T10:08:36.721Z,2205.00
2022-10-11T10:09:36.708Z,2148.75
2022-10-11T10:10:36.710Z,2126.25
2022-10-11T10:11:36.698Z,2008.12
2022-10-11T10:12:36.686Z,2036.25
2022-10-11T10:13:36.681Z,2008.12
2022-10-11T10:14:36.672Z,2036.25
2022-10-11T10:15:36.684Z,2041.88
2022-10-11T10:16:36.653Z,2025.00
2022-10-11T10:17:36.650Z,2210.62
2022-10-11T10:18:36.646Z,2160.00
2022-10-11T10:19:38.924Z,2019.38
2022-10-11T10:20:37.651Z,2064.38
2022-10-11T10:21:36.627Z,2058.75
2022-10-11T10:22:36.619Z,2199.38
2022-10-11T10:23:36.619Z,2610.00
2022-10-11T10:24:36.604Z,2390.62
2022-10-11T10:25:40.845Z,2075.62
2022-10-11T10:26:37.600Z,2295.00
2022-10-11T10:27:36.589Z,2390.62
2022-10-11T10:28:36.654Z,2261.25
2022-10-11T10:29:36.603Z,2261.25
2022-10-11T10:30:36.644Z,1389.38
2022-10-11T10:31:54.961Z,1170.00
2022-10-11T10:32:38.561Z,2064.38
2022-10-11T10:33:36.551Z,2362.50
2022-10-11T10:34:36.552Z,2446.88
2022-10-11T10:35:36.567Z,2373.75
2022-10-11T10:36:36.537Z,866.25
2022-10-11T10:37:36.538Z,916.88
2022-10-11T10:38:36.527Z,635.62
2022-10-11T10:39:36.531Z,641.25
2022-10-11T10:40:36.555Z,663.75
2022-10-11T10:41:36.519Z,686.25
2022-10-11T10:42:36.520Z,708.75
2022-10-11T10:43:36.519Z,624.38
2022-10-11T10:44:36.495Z,624.38
2022-10-11T10:45:36.500Z,669.38
2022-10-11T10:46:36.487Z,1721.25
2022-10-11T10:47:36.463Z,1895.62
2022-10-11T10:49:11.719Z,2053.12
2022-10-11T10:49:54.979Z,849.38
2022-10-11T10:50:38.451Z,787.50
2022-10-11T10:51:36.486Z,956.25
2022-10-11T10:52:36.444Z,1710.00
2022-10-11T10:53:36.437Z,2250.00
2022-10-11T10:54:36.436Z,2576.25
2022-10-11T10:55:36.564Z,950.62
2022-10-11T10:56:36.485Z,1068.75
2022-10-11T10:57:36.417Z,2244.38
2022-10-11T10:58:36.491Z,2143.12
2022-10-11T10:59:36.403Z,1586.25
2022-10-11T11:00:36.409Z,1265.62
2022-10-11T11:01:36.451Z,871.88
2022-10-11T11:02:40.869Z,967.50
2022-10-11T11:03:38.397Z,725.62
2022-10-11T11:04:36.379Z,624.38
2022-10-11T11:05:36.404Z,781.88
2022-10-11T11:06:36.748Z,1901.25
2022-10-11T11:07:36.415Z,1980.00
2022-10-11T11:08:36.359Z,1850.62
2022-10-11T11:09:36.367Z,2002.50
2022-10-11T11:10:36.376Z,2221.88
2022-10-11T11:11:36.381Z,2143.12
2022-10-11T11:12:36.359Z,1755.00
2022-10-11T11:13:36.328Z,1743.75
2022-10-11T11:14:36.328Z,1816.88
2022-10-11T11:15:38.158Z,1833.75
2022-10-11T11:16:37.345Z,1738.12
2022-10-11T11:17:36.308Z,1878.75
2022-10-11T11:18:36.308Z,1771.88
2022-10-11T11:19:36.324Z,2154.38
2022-10-11T11:20:36.291Z,1355.62
2022-10-11T11:21:41.248Z,1102.50
2022-10-11T11:22:38.281Z,658.12
2022-10-11T11:23:36.311Z,613.12
2022-10-11T11:24:36.259Z,1558.12
2022-10-11T11:25:36.283Z,697.50
2022-10-11T11:26:37.810Z,1096.88
2022-10-11T11:27:36.248Z,1400.62
2022-10-11T11:28:36.296Z,1018.12
2022-10-11T11:29:36.307Z,1895.62
2022-10-11T11:30:36.241Z,2058.75
2022-10-11T11:31:36.248Z,2081.25
2022-10-11T11:32:36.232Z,2109.38
2022-10-11T11:33:36.230Z,2137.50
2022-10-11T11:34:36.205Z,1760.62
2022-10-11T11:35:36.202Z,2058.75
2022-10-11T11:36:36.208Z,1929.38
2022-10-11T11:37:36.193Z,2160.00
2022-10-11T11:38:36.204Z,2317.50
2022-10-11T11:39:36.248Z,2238.75
2022-10-11T11:40:36.220Z,2351.25
2022-10-11T11:41:36.220Z,2199.38
2022-10-11T11:42:36.172Z,2238.75
2022-10-11T11:43:36.194Z,2193.75
2022-10-11T11:44:36.165Z,2401.88
2022-10-11T11:45:36.178Z,2165.62
2022-10-11T11:46:36.244Z,2188.12
2022-10-11T11:47:36.128Z,1788.75
2022-10-11T11:48:36.127Z,2160.00
2022-10-11T11:49:36.187Z,2216.25
2022-10-11T11:50:37.149Z,2086.88
2022-10-11T11:51:36.781Z,2210.62
2022-10-11T11:52:36.152Z,2109.38
2022-10-11T11:53:36.116Z,2047.50
2022-10-11T11:54:36.244Z,2182.50
2022-10-11T11:55:36.126Z,2272.50
2022-10-11T11:56:36.100Z,2300.62
2022-10-11T11:57:36.137Z,2160.00
2022-10-11T11:58:36.097Z,2075.62
2022-10-11T11:59:36.104Z,2171.25
2022-10-11T12:00:36.097Z,2058.75
2022-10-11T12:01:36.129Z,2120.62
2022-10-11T12:02:36.047Z,2148.75
2022-10-11T12:03:41.279Z,2165.62
2022-10-11T12:04:38.052Z,2058.75
2022-10-11T12:05:36.096Z,2193.75
2022-10-11T12:06:40.317Z,2283.75
2022-10-11T12:07:38.026Z,2064.38
2022-10-11T12:08:36.059Z,2137.50
2022-10-11T12:09:36.036Z,2227.50
2022-10-11T12:10:36.038Z,2362.50
2022-10-11T12:11:36.001Z,2295.00
2022-10-11T12:12:35.997Z,2469.38
2022-10-11T12:13:36.000Z,2396.25
2022-10-11T12:14:36.000Z,2019.38
2022-10-11T12:15:35.968Z,2165.62
2022-10-11T12:16:35.972Z,2182.50
2022-10-11T12:17:35.971Z,2030.62
2022-10-11T12:18:39.350Z,2081.25
2022-10-11T12:19:37.978Z,2025.00
2022-10-11T12:20:35.967Z,2058.75
2022-10-11T12:21:35.988Z,2002.50
2022-10-11T12:22:35.945Z,1991.25
2022-10-11T12:23:35.940Z,2058.75
2022-10-11T12:24:35.932Z,2210.62
2022-10-11T12:25:35.929Z,2401.88
2022-10-11T12:26:35.929Z,2137.50
2022-10-11T12:27:35.937Z,2030.62
2022-10-11T12:28:35.976Z,2120.62
2022-10-11T12:29:35.923Z,2154.38
2022-10-11T12:30:36.219Z,2227.50
2022-10-11T12:31:35.915Z,2070.00
2022-10-11T12:32:35.897Z,1935.00
2022-10-11T12:33:35.892Z,1906.88
2022-10-11T12:34:37.367Z,1991.25
2022-10-11T12:35:35.887Z,1968.75
2022-10-11T12:36:35.876Z,1951.88
2022-10-11T12:37:35.876Z,2092.50
2022-10-11T12:38:35.868Z,2160.00
2022-10-11T12:39:35.888Z,1968.75
2022-10-11T12:40:35.891Z,1912.50
2022-10-11T12:41:35.847Z,1974.38
2022-10-11T12:42:35.859Z,2019.38
2022-10-11T12:43:35.835Z,1996.88
2022-10-11T12:44:35.841Z,2058.75
2022-10-11T12:45:35.883Z,1946.25
2022-10-11T12:46:35.825Z,2036.25
2022-10-11T12:47:35.827Z,2008.12